Mc Fall, Missouri
Current Conditions -  °F | °C
As of 7:53 AM on Thursday 30 Oct 2014 (Local Time) from KSTJ Reporting Station
Broken Clouds Broken Clouds  
Wind Chill: 44°   Ceiling: 10000
Heat Index: 44°   Visibility: 10mi
Dew Point: 39°   Wind: 3mph
Humidity: 82%   Direction: 110°ESE
Pressure: 29.99"   Gusts: NA
Location:  40.2132°N, 94.5365°W
Report Text: KSTJ 301253Z 11003KT 10SM BKN100 07/04 A2999 RMK AO2 SLP159 T00670039
Loading
Personal Weather Stations






























Interactive Weather Map
Tropical Storm Tracking
New forecast layout! Learn more

10-Day Weather Forecast

Advertisements
Track Severe Weather on mobile